createdAt,value
2023-03-17T14:47:18.578Z,19.72
2023-03-17T14:51:18.773Z,19.81
2023-03-17T14:55:18.770Z,19.96
2023-03-17T14:59:18.775Z,20.04
2023-03-17T15:03:18.774Z,19.88
2023-03-17T15:07:18.800Z,19.83
2023-03-17T15:11:18.797Z,19.89
2023-03-17T15:15:18.791Z,19.95
2023-03-17T15:19:18.281Z,20.02
2023-03-17T15:23:18.288Z,20.06
2023-03-17T15:27:18.271Z,20.09
2023-03-17T15:39:18.350Z,20.44
2023-03-17T15:43:18.280Z,20.55
2023-03-17T15:47:18.251Z,20.44
2023-03-17T15:51:18.229Z,20.20
2023-03-17T15:55:18.202Z,19.79
2023-03-17T15:59:18.158Z,19.61
2023-03-17T16:03:18.134Z,19.47
2023-03-17T16:07:18.076Z,19.19
2023-03-17T16:19:17.999Z,19.00
2023-03-17T20:51:19.393Z,22.24
2023-03-17T20:55:19.346Z,22.29
2023-03-17T20:59:19.309Z,22.30
2023-03-17T21:03:19.392Z,22.29
2023-03-17T21:07:19.245Z,22.29
2023-03-17T21:11:19.203Z,22.40
2023-03-17T21:15:19.172Z,22.51
2023-03-17T21:19:19.232Z,22.59
2023-03-17T21:23:19.475Z,22.70
2023-03-17T21:27:19.684Z,22.74
2023-03-17T21:31:19.832Z,22.79
2023-03-17T21:35:19.847Z,22.81
2023-03-17T21:39:19.918Z,22.83
2023-03-17T21:43:20.114Z,22.76
2023-03-17T21:47:20.101Z,22.68
2023-03-17T21:51:20.059Z,22.74
2023-03-17T21:55:20.009Z,22.74
2023-03-17T21:59:19.975Z,22.75
2023-03-17T22:03:20.018Z,22.79
2023-03-17T22:07:19.920Z,22.79
2023-03-17T22:11:19.895Z,22.87
2023-03-17T22:15:19.821Z,22.96
2023-03-17T22:19:21.298Z,23.12
2023-03-17T22:23:19.752Z,23.21
2023-03-17T22:27:19.724Z,23.28
2023-03-17T22:31:19.690Z,23.36
2023-03-17T22:35:19.665Z,23.28
2023-03-17T22:39:19.735Z,23.25
2023-03-17T22:43:19.919Z,23.24
2023-03-17T22:47:20.095Z,23.23
2023-03-17T22:51:20.434Z,23.24
2023-03-17T22:55:20.435Z,23.30
2023-03-17T22:59:20.466Z,23.36
2023-03-17T23:03:21.009Z,23.41
2023-03-17T23:07:20.959Z,23.42
2023-03-17T23:11:20.960Z,23.46
2023-03-17T23:15:21.040Z,23.48
2023-03-17T23:19:20.964Z,23.50
2023-03-17T23:23:20.578Z,23.52
2023-03-17T23:27:20.546Z,23.58
2023-03-17T23:31:20.577Z,23.63
2023-03-17T23:35:20.477Z,23.70
2023-03-17T23:39:20.432Z,23.73
2023-03-17T23:43:20.382Z,23.77
2023-03-17T23:47:20.471Z,23.78
2023-03-17T23:51:20.453Z,23.82
2023-03-17T23:55:20.471Z,23.86
2023-03-17T23:59:20.330Z,23.87
